To NAV CANADA Home Page Login to a new session Search on AWWS site Feedback and Comments Disclaimer Vers la page française équivalente Tips FAQ What's new on the site To the Forecasts and Observations / NOTAM section To "File a Flight Plan" website Publications and other links Update of the User's profile FIC Telephone Numbers My Weather Data Folder Route Weather Data Regional Weather Data Local Weather Data To the Forecasts and Observations / NOTAM section
Request Generated 07/29/2016 at 19:44:38 UTC . Weather information available at that time is displayed.


Go to a specific product

Save this request

NOTAM

NOTAM


SIGMET
To the Product Selector

SIGMETS GFACN32

WSCN32 CWEG 291905
SIGMET L1 VALID 291905/292305 CWEG-
CZWG WINNIPEG FIR FRQ TS OBS WTN 25 NM OF LINE /N5231 W09825/45 SE CJV8 - /N5106
W09740/75 N CYWG TOP FL400 QS NC
RMK GFACN32=
END/WSCN23/CWAO



AIRMET
To the Product Selector

AIRMETS GFACN32

GFACN32 - No AIRMET bulletins in effect



PIREP
To the Product Selector

FIR_WINNIPEG (WG)

UACN10 CYMJ 291933
WG
UA /OV CYMJ 090020 /TM 1927 /FLUNK /TP TEX2 /IC LGT RIME 130-160 =


METAR/TAF
To the Product Selector

REGINA/REGINA INTL/SK    

METAR CYQR 291900Z 26009KT 15SM FEW055 SCT080 BKN320 25/18 A2999 RMK
CU1AC2CI4 SLP161 DENSITY ALT 3300FT=
METAR CYQR 291800Z 19004KT 160V240 15SM SCT067 SCT100 BKN300 23/16
A3000 RMK CU3AC1CI3 SLP165 DENSITY ALT 3100FT=
METAR CYQR 291700Z 21006KT 180V260 15SM SCT064 BKN300 23/15 A3002 RMK
CU4CI2 SLP169 DENSITY ALT 3000FT=

TAF CYQR 291738Z 2918/3018 21006KT P6SM SCT060 BKN300 TEMPO 2918/3003
P6SM -SHRA BKN060 BKN240 PROB30 2922/3003 VRB20G30KT 5SM TSRA
BKN060CB
FM300300 20006KT P6SM -SHRA BKN040
BECMG 3004/3006 17006KT
FM300900 15006KT P6SM SCT040
FM301500 VRB03KT P6SM SKC
RMK NXT FCST BY 300000Z=

MOOSE JAW/AIR VICE MARSHAL C.M. MCEWEN/SK    

METAR CYMJ 291900Z 00000KT 15SM FEW040CB SCT120 BKN300 23/16 A3001 RMK CB1AC2CI3 CB SE MOVG E LTNG 14 NM SE SH AND VIRGA N-S SLP168=
SPECI CYMJ 291840Z 29002KT 15SM FEW040CB SCT120 BKN300 22/17 A3002 RMK CB1AC2CI3 DVLPG CB SE LTNG 14 NM SE SH SE AND S ACC ASOCTD SL
P170=
SPECI CYMJ 291816Z CCA 31004KT 12SM -SHRA FEW040TCU SCT120 BKN300 22/17 A3002 RMK TCU1AC2CI2 ACC ASOCTD SLP170=
SPECI CYMJ 291816Z 31004KT 12SM -SHRA FEW040TCU SCT120 BKN300 22/17 A3002 RMK TCU1AC2CI2 SLP170=
METAR CYMJ 291800Z 31005KT 15SM FEW035 SCT120 BKN300 23/17 A3002 RMK CU1AC2CI3 TCU ASOCTD SLP170=
METAR CYMJ 291700Z CCA 31004KT 15SM FEW030 SCT120 BKN280 24/16 A3002 RMK CU1AC2CI2 LTNG 86 NM S SLP169=
METAR CYMJ 291700Z 31004KT 15SM FEW030 SCT120 BKN280 24/16 A3002 RMK CU1AC2CI2 SLP169=

TAF CYMJ 291730Z 2918/3006 VRB03KT P6SM FEW040 BKN060 TEMPO 2918/3002
P6SM -SHRA BKN040 PROB30 2919/3002 VRB15G25KT 4SM TSRA BR
BKN040CB
RMK NXT FCST BY 300000Z=


RADAR PCPN RATE
To the Product Selector
Pacific Canada      Western Canada     

SATELLITE VISIBLE
To the Product Selector
West Canada      

SATELLITE INFRARED
To the Product Selector
West Canada     

GRAPHICAL FA CLOUDS & WEATHER FORECASTS
To the Product Selector
Graphical FA gfacn32      

GRAPHICAL FA ICING, TURBULENCE & FREEZING LEVEL FORECASTS
To the Product Selector
Graphical FA gfacn32      

FDTEXT Low Level FD. Temperatures are not forecast for the 3,000-foot level.
To the Product Selector
STN YQR - REGINA. SASK for use 3000 6000 9000 12000 18000
FDCN01 CWAO FCST BASED ON 291200 DATA VALID 291800 17-21 2110+13 2307+06 2611+00 2511-11
FDCN02 CWAO FCST BASED ON 291200 DATA VALID 300000 21-06 2412+14 2414+06 2610+01 2915-10
FDCN03 CWAO FCST BASED ON 291200 DATA VALID 301200 06-17 2309+13 2507+06 2810+01 2814-09



Your time UTC time
Weather data provided by Environment Canada and NAV CANADA